sensor_id;sensor_type;location;lat;lon;timestamp;P1;durP1;ratioP1;P2;durP2;ratioP2
79401;SDS011;68857;47.916;106.940;2023-07-30T00:00:07;3.33;;;2.47;;
79401;SDS011;68857;47.916;106.940;2023-07-30T00:02:35;4.88;;;2.63;;
79401;SDS011;68857;47.916;106.940;2023-07-30T00:05:01;4.53;;;2.30;;
79401;SDS011;68857;47.916;106.940;2023-07-30T00:07:28;2.70;;;1.92;;
79401;SDS011;68857;47.916;106.940;2023-07-30T00:09:54;4.65;;;2.83;;
79401;SDS011;68857;47.916;106.940;2023-07-30T00:12:21;4.78;;;2.78;;
79401;SDS011;68857;47.916;106.940;2023-07-30T00:14:48;3.58;;;2.78;;
79401;SDS011;68857;47.916;106.940;2023-07-30T00:17:14;4.45;;;2.83;;
79401;SDS011;68857;47.916;106.940;2023-07-30T00:19:41;3.55;;;2.60;;
79401;SDS011;68857;47.916;106.940;2023-07-30T00:22:07;5.47;;;2.70;;
79401;SDS011;68857;47.916;106.940;2023-07-30T00:24:34;3.85;;;2.15;;
79401;SDS011;68857;47.916;106.940;2023-07-30T00:27:00;3.53;;;2.15;;
79401;SDS011;68857;47.916;106.940;2023-07-30T00:29:27;5.82;;;2.70;;
79401;SDS011;68857;47.916;106.940;2023-07-30T00:31:53;4.75;;;2.75;;
79401;SDS011;68857;47.916;106.940;2023-07-30T00:34:20;3.85;;;2.03;;
79401;SDS011;68857;47.916;106.940;2023-07-30T00:36:47;4.18;;;2.75;;
79401;SDS011;68857;47.916;106.940;2023-07-30T00:39:13;5.22;;;2.35;;
79401;SDS011;68857;47.916;106.940;2023-07-30T00:41:40;6.10;;;3.08;;
79401;SDS011;68857;47.916;106.940;2023-07-30T00:44:06;3.42;;;2.63;;
79401;SDS011;68857;47.916;106.940;2023-07-30T00:46:32;3.40;;;2.47;;
79401;SDS011;68857;47.916;106.940;2023-07-30T00:48:59;3.63;;;2.97;;
79401;SDS011;68857;47.916;106.940;2023-07-30T00:51:26;4.57;;;2.70;;
79401;SDS011;68857;47.916;106.940;2023-07-30T00:53:54;4.50;;;3.35;;
79401;SDS011;68857;47.916;106.940;2023-07-30T00:56:20;3.72;;;3.28;;
79401;SDS011;68857;47.916;106.940;2023-07-30T00:58:47;4.55;;;2.95;;
79401;SDS011;68857;47.916;106.940;2023-07-30T01:01:15;4.30;;;2.65;;
79401;SDS011;68857;47.916;106.940;2023-07-30T01:03:41;6.30;;;3.08;;
79401;SDS011;68857;47.916;106.940;2023-07-30T01:06:08;4.85;;;2.65;;
79401;SDS011;68857;47.916;106.940;2023-07-30T01:08:34;3.63;;;2.33;;
79401;SDS011;68857;47.916;106.940;2023-07-30T01:11:02;3.50;;;2.40;;
79401;SDS011;68857;47.916;106.940;2023-07-30T01:13:29;4.07;;;2.67;;
79401;SDS011;68857;47.916;106.940;2023-07-30T01:15:57;5.90;;;2.22;;
79401;SDS011;68857;47.916;106.940;2023-07-30T01:18:23;6.00;;;2.58;;
79401;SDS011;68857;47.916;106.940;2023-07-30T01:20:53;3.42;;;1.80;;
79401;SDS011;68857;47.916;106.940;2023-07-30T01:23:19;4.03;;;2.83;;
79401;SDS011;68857;47.916;106.940;2023-07-30T01:25:46;4.07;;;2.35;;
79401;SDS011;68857;47.916;106.940;2023-07-30T01:28:16;5.25;;;2.95;;
79401;SDS011;68857;47.916;106.940;2023-07-30T01:30:44;6.47;;;3.45;;
79401;SDS011;68857;47.916;106.940;2023-07-30T01:33:11;4.53;;;2.58;;
79401;SDS011;68857;47.916;106.940;2023-07-30T01:35:38;5.03;;;3.17;;
79401;SDS011;68857;47.916;106.940;2023-07-30T01:38:06;4.65;;;2.90;;
79401;SDS011;68857;47.916;106.940;2023-07-30T01:40:34;5.25;;;2.75;;
79401;SDS011;68857;47.916;106.940;2023-07-30T01:43:00;7.75;;;3.10;;
79401;SDS011;68857;47.916;106.940;2023-07-30T01:45:27;5.03;;;4.38;;
79401;SDS011;68857;47.916;106.940;2023-07-30T01:47:53;6.82;;;3.22;;
79401;SDS011;68857;47.916;106.940;2023-07-30T01:50:20;4.72;;;3.65;;
79401;SDS011;68857;47.916;106.940;2023-07-30T01:52:46;7.28;;;3.75;;
79401;SDS011;68857;47.916;106.940;2023-07-30T01:55:13;9.57;;;3.55;;
79401;SDS011;68857;47.916;106.940;2023-07-30T01:57:40;6.63;;;4.78;;
79401;SDS011;68857;47.916;106.940;2023-07-30T02:00:06;6.95;;;4.07;;
79401;SDS011;68857;47.916;106.940;2023-07-30T02:02:33;6.45;;;4.35;;
79401;SDS011;68857;47.916;106.940;2023-07-30T02:05:00;7.95;;;4.30;;
79401;SDS011;68857;47.916;106.940;2023-07-30T02:07:27;6.97;;;3.30;;
79401;SDS011;68857;47.916;106.940;2023-07-30T02:09:54;7.85;;;5.03;;
79401;SDS011;68857;47.916;106.940;2023-07-30T02:12:20;7.78;;;4.25;;
79401;SDS011;68857;47.916;106.940;2023-07-30T02:14:47;8.90;;;4.40;;
79401;SDS011;68857;47.916;106.940;2023-07-30T02:17:14;8.75;;;3.22;;
79401;SDS011;68857;47.916;106.940;2023-07-30T02:19:41;5.35;;;3.53;;
79401;SDS011;68857;47.916;106.940;2023-07-30T02:22:08;6.90;;;3.25;;
79401;SDS011;68857;47.916;106.940;2023-07-30T02:24:34;9.63;;;3.70;;
79401;SDS011;68857;47.916;106.940;2023-07-30T02:27:01;6.25;;;4.22;;
79401;SDS011;68857;47.916;106.940;2023-07-30T02:29:27;6.80;;;3.30;;
79401;SDS011;68857;47.916;106.940;2023-07-30T02:31:54;7.15;;;3.20;;
79401;SDS011;68857;47.916;106.940;2023-07-30T02:34:20;6.70;;;3.50;;
79401;SDS011;68857;47.916;106.940;2023-07-30T02:36:47;7.55;;;4.03;;
79401;SDS011;68857;47.916;106.940;2023-07-30T02:39:14;7.05;;;3.10;;
79401;SDS011;68857;47.916;106.940;2023-07-30T02:41:40;6.82;;;4.28;;
79401;SDS011;68857;47.916;106.940;2023-07-30T02:44:07;7.70;;;4.13;;
79401;SDS011;68857;47.916;106.940;2023-07-30T02:46:34;5.85;;;4.03;;
79401;SDS011;68857;47.916;106.940;2023-07-30T02:49:00;8.73;;;3.83;;
79401;SDS011;68857;47.916;106.940;2023-07-30T02:51:27;7.13;;;4.28;;
79401;SDS011;68857;47.916;106.940;2023-07-30T02:53:57;9.40;;;3.92;;
79401;SDS011;68857;47.916;106.940;2023-07-30T02:56:27;7.80;;;4.00;;
79401;SDS011;68857;47.916;106.940;2023-07-30T02:58:53;7.38;;;3.60;;
79401;SDS011;68857;47.916;106.940;2023-07-30T03:01:20;8.15;;;2.70;;
79401;SDS011;68857;47.916;106.940;2023-07-30T03:03:47;6.22;;;3.38;;
79401;SDS011;68857;47.916;106.940;2023-07-30T03:06:13;5.65;;;3.97;;
79401;SDS011;68857;47.916;106.940;2023-07-30T03:08:42;6.57;;;3.72;;
79401;SDS011;68857;47.916;106.940;2023-07-30T03:11:09;6.63;;;3.42;;
79401;SDS011;68857;47.916;106.940;2023-07-30T03:13:35;7.68;;;3.90;;
79401;SDS011;68857;47.916;106.940;2023-07-30T03:16:02;8.07;;;3.42;;
79401;SDS011;68857;47.916;106.940;2023-07-30T03:18:28;7.80;;;3.20;;
79401;SDS011;68857;47.916;106.940;2023-07-30T03:21:03;5.80;;;3.38;;
79401;SDS011;68857;47.916;106.940;2023-07-30T03:23:29;8.32;;;3.83;;
79401;SDS011;68857;47.916;106.940;2023-07-30T03:25:57;6.88;;;3.83;;
79401;SDS011;68857;47.916;106.940;2023-07-30T03:28:25;6.30;;;3.72;;
79401;SDS011;68857;47.916;106.940;2023-07-30T03:30:52;8.52;;;4.38;;
79401;SDS011;68857;47.916;106.940;2023-07-30T03:33:20;4.45;;;3.30;;
79401;SDS011;68857;47.916;106.940;2023-07-30T03:35:46;7.13;;;3.58;;
79401;SDS011;68857;47.916;106.940;2023-07-30T03:38:13;6.15;;;3.00;;
79401;SDS011;68857;47.916;106.940;2023-07-30T03:40:40;7.05;;;4.20;;
79401;SDS011;68857;47.916;106.940;2023-07-30T03:43:06;9.90;;;5.25;;
79401;SDS011;68857;47.916;106.940;2023-07-30T03:45:33;6.32;;;3.28;;
79401;SDS011;68857;47.916;106.940;2023-07-30T03:47:59;5.50;;;3.53;;
79401;SDS011;68857;47.916;106.940;2023-07-30T03:50:26;8.32;;;5.40;;
79401;SDS011;68857;47.916;106.940;2023-07-30T03:52:53;8.50;;;4.15;;
79401;SDS011;68857;47.916;106.940;2023-07-30T03:55:19;5.72;;;3.88;;
79401;SDS011;68857;47.916;106.940;2023-07-30T03:57:46;7.03;;;3.63;;
79401;SDS011;68857;47.916;106.940;2023-07-30T04:00:12;6.05;;;3.47;;
79401;SDS011;68857;47.916;106.940;2023-07-30T04:02:39;8.98;;;4.55;;
79401;SDS011;68857;47.916;106.940;2023-07-30T04:05:06;9.10;;;4.57;;
79401;SDS011;68857;47.916;106.940;2023-07-30T04:07:32;7.07;;;4.05;;
79401;SDS011;68857;47.916;106.940;2023-07-30T04:09:59;7.05;;;4.60;;
79401;SDS011;68857;47.916;106.940;2023-07-30T04:12:25;5.70;;;3.95;;
79401;SDS011;68857;47.916;106.940;2023-07-30T04:14:52;6.38;;;3.33;;
79401;SDS011;68857;47.916;106.940;2023-07-30T04:17:18;7.45;;;3.95;;
79401;SDS011;68857;47.916;106.940;2023-07-30T04:19:45;9.60;;;4.32;;
79401;SDS011;68857;47.916;106.940;2023-07-30T04:22:12;8.93;;;3.92;;
79401;SDS011;68857;47.916;106.940;2023-07-30T04:24:38;6.53;;;3.85;;
79401;SDS011;68857;47.916;106.940;2023-07-30T04:27:05;13.30;;;4.28;;
79401;SDS011;68857;47.916;106.940;2023-07-30T04:29:31;4.13;;;3.35;;
79401;SDS011;68857;47.916;106.940;2023-07-30T04:31:58;6.32;;;3.70;;
79401;SDS011;68857;47.916;106.940;2023-07-30T04:34:24;6.90;;;3.95;;
79401;SDS011;68857;47.916;106.940;2023-07-30T04:36:51;5.82;;;4.30;;
79401;SDS011;68857;47.916;106.940;2023-07-30T04:39:17;5.95;;;4.72;;
79401;SDS011;68857;47.916;106.940;2023-07-30T04:41:44;7.50;;;3.72;;
79401;SDS011;68857;47.916;106.940;2023-07-30T04:44:10;6.60;;;4.15;;
79401;SDS011;68857;47.916;106.940;2023-07-30T04:46:37;6.75;;;3.55;;
79401;SDS011;68857;47.916;106.940;2023-07-30T04:49:04;5.88;;;4.18;;
79401;SDS011;68857;47.916;106.940;2023-07-30T04:51:30;8.35;;;4.40;;
79401;SDS011;68857;47.916;106.940;2023-07-30T04:53:57;6.78;;;3.40;;
79401;SDS011;68857;47.916;106.940;2023-07-30T04:56:24;5.40;;;3.92;;
79401;SDS011;68857;47.916;106.940;2023-07-30T04:58:51;5.75;;;4.07;;
79401;SDS011;68857;47.916;106.940;2023-07-30T05:01:18;5.95;;;5.22;;
79401;SDS011;68857;47.916;106.940;2023-07-30T05:03:45;6.38;;;4.00;;
79401;SDS011;68857;47.916;106.940;2023-07-30T05:06:11;6.72;;;4.00;;
79401;SDS011;68857;47.916;106.940;2023-07-30T05:08:38;5.78;;;3.60;;
79401;SDS011;68857;47.916;106.940;2023-07-30T05:11:04;7.70;;;3.65;;
79401;SDS011;68857;47.916;106.940;2023-07-30T05:13:31;6.80;;;3.75;;
79401;SDS011;68857;47.916;106.940;2023-07-30T05:15:58;4.78;;;3.35;;
79401;SDS011;68857;47.916;106.940;2023-07-30T05:18:24;5.50;;;3.85;;
79401;SDS011;68857;47.916;106.940;2023-07-30T05:20:51;6.10;;;3.90;;
79401;SDS011;68857;47.916;106.940;2023-07-30T05:23:17;4.55;;;3.25;;
79401;SDS011;68857;47.916;106.940;2023-07-30T05:25:44;7.43;;;3.80;;
79401;SDS011;68857;47.916;106.940;2023-07-30T05:28:11;7.50;;;4.40;;
79401;SDS011;68857;47.916;106.940;2023-07-30T05:30:38;7.03;;;4.03;;
79401;SDS011;68857;47.916;106.940;2023-07-30T05:33:04;6.32;;;4.43;;
79401;SDS011;68857;47.916;106.940;2023-07-30T05:35:31;6.53;;;3.63;;
79401;SDS011;68857;47.916;106.940;2023-07-30T05:37:57;4.30;;;3.90;;
79401;SDS011;68857;47.916;106.940;2023-07-30T05:40:24;6.45;;;4.05;;
79401;SDS011;68857;47.916;106.940;2023-07-30T05:42:50;6.05;;;3.65;;
79401;SDS011;68857;47.916;106.940;2023-07-30T05:45:17;4.97;;;3.13;;
79401;SDS011;68857;47.916;106.940;2023-07-30T05:47:44;7.00;;;3.38;;
79401;SDS011;68857;47.916;106.940;2023-07-30T05:50:10;4.82;;;4.18;;
79401;SDS011;68857;47.916;106.940;2023-07-30T05:52:37;4.18;;;3.55;;
79401;SDS011;68857;47.916;106.940;2023-07-30T05:55:03;6.63;;;3.83;;
79401;SDS011;68857;47.916;106.940;2023-07-30T05:57:30;4.90;;;3.03;;
79401;SDS011;68857;47.916;106.940;2023-07-30T05:59:56;6.63;;;4.78;;
79401;SDS011;68857;47.916;106.940;2023-07-30T06:02:23;6.75;;;3.50;;
79401;SDS011;68857;47.916;106.940;2023-07-30T06:04:49;4.75;;;3.35;;
79401;SDS011;68857;47.916;106.940;2023-07-30T06:07:16;7.43;;;4.00;;
79401;SDS011;68857;47.916;106.940;2023-07-30T06:09:42;4.05;;;3.40;;
79401;SDS011;68857;47.916;106.940;2023-07-30T06:12:10;3.67;;;2.80;;
79401;SDS011;68857;47.916;106.940;2023-07-30T06:14:37;5.45;;;3.53;;
79401;SDS011;68857;47.916;106.940;2023-07-30T06:17:04;4.38;;;3.42;;
79401;SDS011;68857;47.916;106.940;2023-07-30T06:19:30;6.35;;;3.20;;
79401;SDS011;68857;47.916;106.940;2023-07-30T06:21:57;3.80;;;3.00;;
79401;SDS011;68857;47.916;106.940;2023-07-30T06:24:24;3.58;;;2.58;;
79401;SDS011;68857;47.916;106.940;2023-07-30T06:26:50;5.30;;;2.90;;
79401;SDS011;68857;47.916;106.940;2023-07-30T06:29:17;3.50;;;3.03;;
79401;SDS011;68857;47.916;106.940;2023-07-30T06:31:43;5.85;;;3.03;;
79401;SDS011;68857;47.916;106.940;2023-07-30T06:34:11;3.63;;;3.15;;
79401;SDS011;68857;47.916;106.940;2023-07-30T06:36:38;3.97;;;2.92;;
79401;SDS011;68857;47.916;106.940;2023-07-30T06:39:05;4.65;;;3.70;;
79401;SDS011;68857;47.916;106.940;2023-07-30T06:41:31;4.25;;;3.25;;
79401;SDS011;68857;47.916;106.940;2023-07-30T06:43:58;3.20;;;2.47;;
79401;SDS011;68857;47.916;106.940;2023-07-30T06:46:25;3.45;;;3.15;;
79401;SDS011;68857;47.916;106.940;2023-07-30T06:48:51;3.50;;;3.03;;
79401;SDS011;68857;47.916;106.940;2023-07-30T06:51:23;5.53;;;2.83;;
79401;SDS011;68857;47.916;106.940;2023-07-30T06:53:50;3.47;;;3.17;;
79401;SDS011;68857;47.916;106.940;2023-07-30T06:56:17;2.80;;;2.45;;
79401;SDS011;68857;47.916;106.940;2023-07-30T06:58:44;4.28;;;2.88;;
79401;SDS011;68857;47.916;106.940;2023-07-30T07:01:10;3.70;;;2.20;;
79401;SDS011;68857;47.916;106.940;2023-07-30T07:03:37;3.63;;;3.03;;
79401;SDS011;68857;47.916;106.940;2023-07-30T07:06:04;2.97;;;1.90;;
79401;SDS011;68857;47.916;106.940;2023-07-30T07:08:30;3.72;;;2.65;;
79401;SDS011;68857;47.916;106.940;2023-07-30T07:10:57;3.53;;;2.17;;
79401;SDS011;68857;47.916;106.940;2023-07-30T07:13:23;3.10;;;2.30;;
79401;SDS011;68857;47.916;106.940;2023-07-30T07:15:53;3.83;;;3.15;;
79401;SDS011;68857;47.916;106.940;2023-07-30T07:18:19;4.15;;;2.83;;
79401;SDS011;68857;47.916;106.940;2023-07-30T07:20:46;3.40;;;2.65;;
79401;SDS011;68857;47.916;106.940;2023-07-30T07:23:13;4.40;;;2.60;;
79401;SDS011;68857;47.916;106.940;2023-07-30T07:25:39;4.80;;;2.53;;
79401;SDS011;68857;47.916;106.940;2023-07-30T07:28:06;2.63;;;2.35;;
79401;SDS011;68857;47.916;106.940;2023-07-30T07:30:34;5.30;;;2.05;;
79401;SDS011;68857;47.916;106.940;2023-07-30T07:33:02;5.10;;;3.25;;
79401;SDS011;68857;47.916;106.940;2023-07-30T07:35:30;4.22;;;2.55;;
79401;SDS011;68857;47.916;106.940;2023-07-30T07:37:57;5.53;;;2.25;;
79401;SDS011;68857;47.916;106.940;2023-07-30T07:40:23;5.97;;;3.70;;
79401;SDS011;68857;47.916;106.940;2023-07-30T07:42:50;3.28;;;2.25;;
79401;SDS011;68857;47.916;106.940;2023-07-30T07:45:16;2.75;;;2.40;;
79401;SDS011;68857;47.916;106.940;2023-07-30T07:47:43;3.17;;;2.20;;
79401;SDS011;68857;47.916;106.940;2023-07-30T07:50:10;3.38;;;2.75;;
79401;SDS011;68857;47.916;106.940;2023-07-30T07:52:36;4.80;;;2.70;;
79401;SDS011;68857;47.916;106.940;2023-07-30T07:55:03;3.28;;;2.63;;
79401;SDS011;68857;47.916;106.940;2023-07-30T07:57:31;3.40;;;3.10;;
79401;SDS011;68857;47.916;106.940;2023-07-30T07:59:57;4.00;;;2.80;;
79401;SDS011;68857;47.916;106.940;2023-07-30T08:02:24;3.55;;;2.33;;
79401;SDS011;68857;47.916;106.940;2023-07-30T08:04:50;6.07;;;2.53;;
79401;SDS011;68857;47.916;106.940;2023-07-30T08:07:17;4.15;;;2.65;;
79401;SDS011;68857;47.916;106.940;2023-07-30T08:09:44;4.35;;;2.58;;
79401;SDS011;68857;47.916;106.940;2023-07-30T08:12:11;5.10;;;3.05;;
79401;SDS011;68857;47.916;106.940;2023-07-30T08:14:38;4.15;;;2.75;;
79401;SDS011;68857;47.916;106.940;2023-07-30T08:17:04;3.95;;;2.33;;
79401;SDS011;68857;47.916;106.940;2023-07-30T08:19:31;6.28;;;2.60;;
79401;SDS011;68857;47.916;106.940;2023-07-30T08:21:58;3.70;;;2.78;;
79401;SDS011;68857;47.916;106.940;2023-07-30T08:24:24;3.85;;;2.38;;
79401;SDS011;68857;47.916;106.940;2023-07-30T08:26:51;3.45;;;2.40;;
79401;SDS011;68857;47.916;106.940;2023-07-30T08:29:18;3.42;;;2.90;;
79401;SDS011;68857;47.916;106.940;2023-07-30T08:31:44;4.28;;;2.85;;
79401;SDS011;68857;47.916;106.940;2023-07-30T08:34:11;4.15;;;3.40;;
79401;SDS011;68857;47.916;106.940;2023-07-30T08:36:37;6.70;;;4.10;;
79401;SDS011;68857;47.916;106.940;2023-07-30T08:39:04;4.00;;;2.03;;
79401;SDS011;68857;47.916;106.940;2023-07-30T08:41:31;5.03;;;3.35;;
79401;SDS011;68857;47.916;106.940;2023-07-30T08:43:57;3.20;;;1.95;;
79401;SDS011;68857;47.916;106.940;2023-07-30T08:46:24;3.58;;;2.33;;
79401;SDS011;68857;47.916;106.940;2023-07-30T08:48:50;4.45;;;2.90;;
79401;SDS011;68857;47.916;106.940;2023-07-30T08:51:17;2.92;;;2.42;;
79401;SDS011;68857;47.916;106.940;2023-07-30T08:53:43;4.50;;;2.45;;
79401;SDS011;68857;47.916;106.940;2023-07-30T08:56:10;4.10;;;3.70;;
79401;SDS011;68857;47.916;106.940;2023-07-30T08:58:36;5.18;;;3.03;;
79401;SDS011;68857;47.916;106.940;2023-07-30T09:01:06;7.25;;;2.47;;
79401;SDS011;68857;47.916;106.940;2023-07-30T09:03:37;21.27;;;4.20;;
79401;SDS011;68857;47.916;106.940;2023-07-30T09:06:04;22.85;;;4.82;;
79401;SDS011;68857;47.916;106.940;2023-07-30T09:08:30;17.08;;;2.75;;
79401;SDS011;68857;47.916;106.940;2023-07-30T09:11:07;16.35;;;3.50;;
79401;SDS011;68857;47.916;106.940;2023-07-30T09:13:38;12.90;;;3.65;;
79401;SDS011;68857;47.916;106.940;2023-07-30T09:16:08;18.35;;;3.65;;
79401;SDS011;68857;47.916;106.940;2023-07-30T09:18:39;13.80;;;2.63;;
79401;SDS011;68857;47.916;106.940;2023-07-30T09:21:06;13.43;;;3.50;;
79401;SDS011;68857;47.916;106.940;2023-07-30T09:23:38;13.00;;;3.15;;
79401;SDS011;68857;47.916;106.940;2023-07-30T09:26:06;9.65;;;2.63;;
79401;SDS011;68857;47.916;106.940;2023-07-30T09:28:32;8.23;;;2.20;;
79401;SDS011;68857;47.916;106.940;2023-07-30T09:30:59;5.28;;;3.47;;
79401;SDS011;68857;47.916;106.940;2023-07-30T09:33:27;6.55;;;2.38;;
79401;SDS011;68857;47.916;106.940;2023-07-30T09:35:53;5.10;;;2.67;;
79401;SDS011;68857;47.916;106.940;2023-07-30T09:38:21;5.88;;;2.60;;
79401;SDS011;68857;47.916;106.940;2023-07-30T09:40:47;8.07;;;2.50;;
79401;SDS011;68857;47.916;106.940;2023-07-30T09:43:15;4.70;;;2.55;;
79401;SDS011;68857;47.916;106.940;2023-07-30T09:45:43;5.18;;;2.63;;
79401;SDS011;68857;47.916;106.940;2023-07-30T09:48:12;3.13;;;2.47;;
79401;SDS011;68857;47.916;106.940;2023-07-30T09:50:40;5.28;;;2.20;;
79401;SDS011;68857;47.916;106.940;2023-07-30T09:53:07;4.28;;;1.70;;
79401;SDS011;68857;47.916;106.940;2023-07-30T09:55:35;4.55;;;2.58;;
79401;SDS011;68857;47.916;106.940;2023-07-30T09:58:01;4.00;;;3.03;;
79401;SDS011;68857;47.916;106.940;2023-07-30T10:00:29;3.78;;;2.10;;
79401;SDS011;68857;47.916;106.940;2023-07-30T10:02:55;7.32;;;2.95;;
79401;SDS011;68857;47.916;106.940;2023-07-30T10:05:24;3.13;;;1.90;;
79401;SDS011;68857;47.916;106.940;2023-07-30T10:07:59;4.22;;;2.55;;
79401;SDS011;68857;47.916;106.940;2023-07-30T10:10:27;3.25;;;2.20;;
79401;SDS011;68857;47.916;106.940;2023-07-30T10:12:55;5.20;;;2.88;;
79401;SDS011;68857;47.916;106.940;2023-07-30T10:15:24;3.95;;;2.10;;
79401;SDS011;68857;47.916;106.940;2023-07-30T10:17:51;4.00;;;2.17;;
79401;SDS011;68857;47.916;106.940;2023-07-30T10:20:21;4.15;;;1.70;;
79401;SDS011;68857;47.916;106.940;2023-07-30T10:22:58;4.38;;;2.65;;
79401;SDS011;68857;47.916;106.940;2023-07-30T10:25:29;5.03;;;2.55;;
79401;SDS011;68857;47.916;106.940;2023-07-30T10:27:55;3.50;;;2.72;;
79401;SDS011;68857;47.916;106.940;2023-07-30T10:30:27;4.70;;;1.92;;
79401;SDS011;68857;47.916;106.940;2023-07-30T10:35:44;2.70;;;2.22;;
79401;SDS011;68857;47.916;106.940;2023-07-30T10:41:05;4.13;;;2.67;;
79401;SDS011;68857;47.916;106.940;2023-07-30T10:43:34;4.20;;;2.58;;
79401;SDS011;68857;47.916;106.940;2023-07-30T10:46:01;6.22;;;2.50;;
79401;SDS011;68857;47.916;106.940;2023-07-30T10:48:32;2.53;;;2.03;;
79401;SDS011;68857;47.916;106.940;2023-07-30T10:51:00;4.78;;;2.35;;
79401;SDS011;68857;47.916;106.940;2023-07-30T10:53:27;3.75;;;2.40;;
79401;SDS011;68857;47.916;106.940;2023-07-30T10:55:53;5.93;;;2.15;;
79401;SDS011;68857;47.916;106.940;2023-07-30T10:58:24;2.97;;;2.00;;
79401;SDS011;68857;47.916;106.940;2023-07-30T11:00:51;2.88;;;2.17;;
79401;SDS011;68857;47.916;106.940;2023-07-30T11:03:18;4.25;;;3.10;;
79401;SDS011;68857;47.916;106.940;2023-07-30T11:05:48;4.80;;;1.95;;
79401;SDS011;68857;47.916;106.940;2023-07-30T11:08:14;4.35;;;2.20;;
79401;SDS011;68857;47.916;106.940;2023-07-30T11:10:41;3.35;;;2.25;;
79401;SDS011;68857;47.916;106.940;2023-07-30T11:13:08;4.20;;;2.47;;
79401;SDS011;68857;47.916;106.940;2023-07-30T11:15:44;3.10;;;2.28;;
79401;SDS011;68857;47.916;106.940;2023-07-30T11:18:12;2.72;;;2.40;;
79401;SDS011;68857;47.916;106.940;2023-07-30T11:20:39;4.55;;;2.22;;
79401;SDS011;68857;47.916;106.940;2023-07-30T11:23:21;3.80;;;2.22;;
79401;SDS011;68857;47.916;106.940;2023-07-30T11:25:49;3.80;;;3.50;;
79401;SDS011;68857;47.916;106.940;2023-07-30T11:28:34;2.90;;;1.77;;
79401;SDS011;68857;47.916;106.940;2023-07-30T11:31:02;3.30;;;2.42;;
79401;SDS011;68857;47.916;106.940;2023-07-30T11:33:29;3.45;;;2.40;;
79401;SDS011;68857;47.916;106.940;2023-07-30T11:35:56;3.40;;;2.05;;
79401;SDS011;68857;47.916;106.940;2023-07-30T11:38:26;5.93;;;2.75;;
79401;SDS011;68857;47.916;106.940;2023-07-30T11:40:53;5.63;;;2.58;;
79401;SDS011;68857;47.916;106.940;2023-07-30T11:43:20;4.05;;;1.85;;
79401;SDS011;68857;47.916;106.940;2023-07-30T11:45:48;5.13;;;2.38;;
79401;SDS011;68857;47.916;106.940;2023-07-30T11:48:15;4.38;;;2.03;;
79401;SDS011;68857;47.916;106.940;2023-07-30T11:53:11;4.25;;;2.05;;
79401;SDS011;68857;47.916;106.940;2023-07-30T11:55:38;5.10;;;2.65;;
79401;SDS011;68857;47.916;106.940;2023-07-30T11:58:05;4.55;;;3.58;;
79401;SDS011;68857;47.916;106.940;2023-07-30T12:00:34;4.43;;;2.45;;
79401;SDS011;68857;47.916;106.940;2023-07-30T12:03:04;2.67;;;1.92;;
79401;SDS011;68857;47.916;106.940;2023-07-30T12:05:32;4.13;;;3.03;;
79401;SDS011;68857;47.916;106.940;2023-07-30T12:08:00;5.03;;;2.17;;
79401;SDS011;68857;47.916;106.940;2023-07-30T12:10:40;5.43;;;2.38;;
79401;SDS011;68857;47.916;106.940;2023-07-30T12:13:26;2.58;;;2.10;;
79401;SDS011;68857;47.916;106.940;2023-07-30T12:15:53;3.65;;;2.35;;
79401;SDS011;68857;47.916;106.940;2023-07-30T12:18:20;3.80;;;2.10;;
79401;SDS011;68857;47.916;106.940;2023-07-30T12:20:47;3.60;;;2.10;;
79401;SDS011;68857;47.916;106.940;2023-07-30T12:23:16;3.53;;;1.98;;
79401;SDS011;68857;47.916;106.940;2023-07-30T12:25:42;3.50;;;2.28;;
79401;SDS011;68857;47.916;106.940;2023-07-30T12:28:09;2.42;;;1.52;;
79401;SDS011;68857;47.916;106.940;2023-07-30T12:30:36;3.13;;;1.83;;
79401;SDS011;68857;47.916;106.940;2023-07-30T12:33:03;4.35;;;1.90;;
79401;SDS011;68857;47.916;106.940;2023-07-30T12:35:30;2.17;;;1.73;;
79401;SDS011;68857;47.916;106.940;2023-07-30T12:37:57;3.28;;;2.45;;
79401;SDS011;68857;47.916;106.940;2023-07-30T12:40:24;5.40;;;2.15;;
79401;SDS011;68857;47.916;106.940;2023-07-30T12:42:50;3.53;;;2.50;;
79401;SDS011;68857;47.916;106.940;2023-07-30T12:45:18;6.45;;;2.45;;
79401;SDS011;68857;47.916;106.940;2023-07-30T12:47:44;5.07;;;2.90;;
79401;SDS011;68857;47.916;106.940;2023-07-30T12:50:11;6.03;;;3.10;;
79401;SDS011;68857;47.916;106.940;2023-07-30T12:52:37;6.72;;;2.17;;
79401;SDS011;68857;47.916;106.940;2023-07-30T12:55:04;5.80;;;2.65;;
79401;SDS011;68857;47.916;106.940;2023-07-30T12:57:31;6.93;;;2.40;;
79401;SDS011;68857;47.916;106.940;2023-07-30T12:59:58;5.65;;;3.20;;
79401;SDS011;68857;47.916;106.940;2023-07-30T13:02:25;6.25;;;3.38;;
79401;SDS011;68857;47.916;106.940;2023-07-30T13:04:51;5.63;;;2.97;;
79401;SDS011;68857;47.916;106.940;2023-07-30T13:07:18;7.13;;;3.03;;
79401;SDS011;68857;47.916;106.940;2023-07-30T13:09:45;7.00;;;2.53;;
79401;SDS011;68857;47.916;106.940;2023-07-30T13:12:13;9.98;;;3.42;;
79401;SDS011;68857;47.916;106.940;2023-07-30T13:14:39;6.55;;;3.60;;
79401;SDS011;68857;47.916;106.940;2023-07-30T13:17:06;7.55;;;2.97;;
79401;SDS011;68857;47.916;106.940;2023-07-30T13:19:32;6.10;;;2.45;;
79401;SDS011;68857;47.916;106.940;2023-07-30T13:22:00;5.82;;;3.28;;
79401;SDS011;68857;47.916;106.940;2023-07-30T13:24:26;8.65;;;3.33;;
79401;SDS011;68857;47.916;106.940;2023-07-30T13:26:55;9.30;;;4.35;;
79401;SDS011;68857;47.916;106.940;2023-07-30T13:29:21;9.57;;;3.28;;
79401;SDS011;68857;47.916;106.940;2023-07-30T13:31:48;6.82;;;4.88;;
79401;SDS011;68857;47.916;106.940;2023-07-30T13:34:14;8.40;;;3.30;;
79401;SDS011;68857;47.916;106.940;2023-07-30T13:36:41;8.85;;;3.30;;
79401;SDS011;68857;47.916;106.940;2023-07-30T13:39:07;11.27;;;3.42;;
79401;SDS011;68857;47.916;106.940;2023-07-30T13:41:34;10.77;;;4.45;;
79401;SDS011;68857;47.916;106.940;2023-07-30T13:44:00;6.32;;;4.18;;
79401;SDS011;68857;47.916;106.940;2023-07-30T13:46:27;7.78;;;3.47;;
79401;SDS011;68857;47.916;106.940;2023-07-30T13:48:53;12.48;;;5.47;;
79401;SDS011;68857;47.916;106.940;2023-07-30T13:51:20;9.43;;;4.05;;
79401;SDS011;68857;47.916;106.940;2023-07-30T13:53:46;8.75;;;4.07;;
79401;SDS011;68857;47.916;106.940;2023-07-30T13:56:13;11.95;;;4.55;;
79401;SDS011;68857;47.916;106.940;2023-07-30T13:58:40;10.40;;;4.03;;
79401;SDS011;68857;47.916;106.940;2023-07-30T14:01:06;10.75;;;4.18;;
79401;SDS011;68857;47.916;106.940;2023-07-30T14:03:34;12.15;;;3.70;;
79401;SDS011;68857;47.916;106.940;2023-07-30T14:06:01;10.93;;;4.47;;
79401;SDS011;68857;47.916;106.940;2023-07-30T14:08:28;9.90;;;4.43;;
79401;SDS011;68857;47.916;106.940;2023-07-30T14:10:55;10.57;;;6.28;;
79401;SDS011;68857;47.916;106.940;2023-07-30T14:13:22;10.93;;;5.47;;
79401;SDS011;68857;47.916;106.940;2023-07-30T14:15:49;15.35;;;4.80;;
79401;SDS011;68857;47.916;106.940;2023-07-30T14:18:15;11.13;;;5.28;;
79401;SDS011;68857;47.916;106.940;2023-07-30T14:20:42;12.10;;;4.80;;
79401;SDS011;68857;47.916;106.940;2023-07-30T14:23:08;12.15;;;4.97;;
79401;SDS011;68857;47.916;106.940;2023-07-30T14:25:37;12.45;;;4.35;;
79401;SDS011;68857;47.916;106.940;2023-07-30T14:28:04;8.55;;;4.25;;